Time;durP1;ratioP1;P1;durP2;ratioP2;P2;SDS_P1;SDS_P2;PMS_P1;PMS_P2;Temp;Humidity;BMP_temperature;BMP_pressure;BME280_temperature;BME280_humidity;BME280_pressure;Samples;Min_cycle;Max_cycle;Signal;HPM_P1;HPM_P2
2022/12/23 00:00:55;;;;;;;19.37;11.23;;;6.90;99.90;;;;;;4977176;28;20234;-68
2022/12/23 00:03:22;;;;;;;27.37;13.20;;;6.90;99.90;;;;;;4984226;28;20205;-69
2022/12/23 00:05:48;;;;;;;24.07;12.33;;;6.80;99.90;;;;;;4944253;28;20228;-68
2022/12/23 00:08:17;;;;;;;21.03;11.53;;;6.80;99.90;;;;;;4964757;28;20207;-68
2022/12/23 00:10:44;;;;;;;22.60;11.70;;;6.90;99.90;;;;;;4963486;28;20228;-68
2022/12/23 00:16:03;;;;;;;20.10;11.73;;;6.80;99.90;;;;;;4969701;28;20336;-68
2022/12/23 00:18:30;;;;;;;19.13;11.83;;;6.90;99.90;;;;;;4975924;28;20205;-68
2022/12/23 00:21:00;;;;;;;24.77;12.80;;;6.80;99.90;;;;;;4942179;28;20715;-68
2022/12/23 00:23:28;;;;;;;21.40;11.53;;;6.80;99.90;;;;;;4967411;28;20207;-68
2022/12/23 00:25:55;;;;;;;21.13;11.73;;;6.90;99.90;;;;;;4956719;28;20601;-69
2022/12/23 00:28:26;;;;;;;26.83;12.33;;;6.90;99.90;;;;;;4979601;28;20206;-68
2022/12/23 00:30:54;;;;;;;23.73;13.20;;;6.90;99.90;;;;;;4972246;28;20624;-68
2022/12/23 00:33:23;;;;;;;23.37;13.37;;;6.90;99.90;;;;;;4977289;28;20203;-69
2022/12/23 00:35:51;;;;;;;21.60;13.17;;;6.90;99.90;;;;;;4943924;28;20213;-68
2022/12/23 00:42:52;;;;;;;30.23;14.20;;;6.80;99.90;;;;;;4975594;28;20210;-68
2022/12/23 00:43:55;;;;;;;21.63;11.83;;;6.80;99.90;;;;;;4962204;28;20739;-68
2022/12/23 00:46:22;;;;;;;22.77;12.17;;;6.90;99.90;;;;;;4977890;28;20684;-68
2022/12/23 00:51:33;;;;;;;19.80;11.43;;;6.90;99.90;;;;;;4948258;28;20234;-68
2022/12/23 00:54:00;;;;;;;24.13;12.53;;;6.90;99.90;;;;;;4961193;28;20211;-69
2022/12/23 00:56:28;;;;;;;20.20;11.50;;;6.90;99.90;;;;;;4974827;28;20214;-68
2022/12/23 00:58:54;;;;;;;22.20;11.70;;;6.80;99.90;;;;;;4958906;28;20204;-69
2022/12/23 01:06:50;;;;;;;16.30;10.70;;;6.80;99.90;;;;;;4948971;28;20209;-69
2022/12/23 01:09:17;;;;;;;22.73;11.93;;;6.80;99.90;;;;;;4968018;28;20199;-69
2022/12/23 01:11:45;;;;;;;28.03;14.03;;;6.90;99.90;;;;;;4969386;28;20482;-68
2022/12/23 01:14:12;;;;;;;23.17;12.57;;;6.80;99.90;;;;;;4961646;28;20207;-68
2022/12/23 01:16:40;;;;;;;35.83;14.73;;;6.90;99.90;;;;;;4970205;28;20207;-69
2022/12/23 01:19:07;;;;;;;20.70;13.07;;;6.80;99.90;;;;;;4979502;28;20685;-68
2022/12/23 01:21:34;;;;;;;22.87;13.23;;;6.90;99.90;;;;;;4979170;28;20203;-68
2022/12/23 01:24:01;;;;;;;26.37;13.57;;;6.80;99.90;;;;;;4948794;28;20209;-69
2022/12/23 01:26:28;;;;;;;23.50;13.17;;;6.70;99.90;;;;;;4968689;28;20207;-69
2022/12/23 01:28:57;;;;;;;25.20;13.33;;;6.80;99.90;;;;;;4955556;28;20218;-68
2022/12/23 01:31:25;;;;;;;29.07;14.40;;;6.80;99.90;;;;;;4964262;28;20226;-69
2022/12/23 01:33:53;;;;;;;27.63;14.10;;;6.70;99.90;;;;;;4969020;28;20526;-68
2022/12/23 01:36:21;;;;;;;28.00;13.30;;;6.80;99.90;;;;;;4977548;28;20211;-68
2022/12/23 01:38:48;;;;;;;27.43;13.57;;;6.80;99.90;;;;;;4947684;28;20221;-69
2022/12/23 01:42:42;;;;;;;25.73;13.63;;;6.80;99.90;;;;;;4957600;28;20210;-68
2022/12/23 01:44:36;;;;;;;28.13;15.43;;;6.80;99.90;;;;;;4956079;28;21143;-68
2022/12/23 01:47:07;;;;;;;20.87;13.43;;;6.90;99.90;;;;;;4962238;28;20275;-68
2022/12/23 01:49:34;;;;;;;28.77;14.10;;;6.80;99.90;;;;;;4974351;28;20223;-68
2022/12/23 01:52:01;;;;;;;25.23;13.70;;;6.80;99.90;;;;;;4971719;28;20630;-69
2022/12/23 01:54:28;;;;;;;26.17;13.63;;;6.80;99.90;;;;;;4945220;28;20215;-69
2022/12/23 01:56:55;;;;;;;23.17;13.53;;;6.90;99.90;;;;;;4957347;28;20677;-69
2022/12/23 02:04:49;;;;;;;23.37;13.17;;;6.90;99.90;;;;;;4968861;28;20260;-68
2022/12/23 02:10:02;;;;;;;28.23;14.23;;;6.80;99.90;;;;;;4939066;28;20252;-68
2022/12/23 02:12:45;;;;;;;30.67;14.23;;;6.80;99.90;;;;;;4961086;28;20254;-69
2022/12/23 02:18:38;;;;;;;20.57;13.10;;;6.80;99.90;;;;;;4967611;28;20225;-68
2022/12/23 02:21:56;;;;;;;22.47;13.50;;;6.80;99.90;;;;;;4974585;28;20207;-68
2022/12/23 02:24:47;;;;;;;23.87;12.77;;;6.70;99.90;;;;;;4893957;29;20700;-68
2022/12/23 02:27:18;;;;;;;25.63;12.10;;;6.70;99.90;;;;;;4854464;29;20236;-68
2022/12/23 02:30:24;;;;;;;18.00;11.07;;;6.70;99.90;;;;;;4948167;28;20238;-68
2022/12/23 02:33:10;;;;;;;21.87;12.20;;;6.60;99.90;;;;;;4952512;28;20237;-68
2022/12/23 02:35:43;;;;;;;29.67;11.90;;;6.70;99.90;;;;;;4976510;28;20207;-68
2022/12/23 02:38:13;;;;;;;21.23;12.00;;;6.60;99.90;;;;;;4972518;28;20195;-68
2022/12/23 02:40:49;;;;;;;22.20;12.17;;;6.70;99.90;;;;;;4946424;28;20559;-69
2022/12/23 02:43:23;;;;;;;20.57;11.10;;;6.70;99.90;;;;;;4960639;28;20202;-68
2022/12/23 02:45:57;;;;;;;26.97;12.53;;;6.70;99.90;;;;;;4977606;28;20207;-69
2022/12/23 02:48:33;;;;;;;32.10;13.63;;;6.60;99.90;;;;;;4956012;28;20427;-69
2022/12/23 02:51:01;;;;;;;22.73;13.57;;;6.70;99.90;;;;;;4975442;28;20226;-68
2022/12/23 02:53:33;;;;;;;23.10;12.60;;;6.70;99.90;;;;;;4978788;28;20218;-69
2022/12/23 02:56:02;;;;;;;24.00;12.27;;;6.70;99.90;;;;;;4961700;28;20227;-69
2022/12/23 02:58:34;;;;;;;22.20;12.07;;;6.70;99.90;;;;;;4947246;28;20424;-68
2022/12/23 03:01:02;;;;;;;21.33;12.83;;;6.70;99.90;;;;;;4976385;28;20203;-68
2022/12/23 03:03:31;;;;;;;26.77;13.27;;;6.70;99.90;;;;;;4959749;28;20416;-68
2022/12/23 03:05:58;;;;;;;22.70;13.03;;;6.80;99.90;;;;;;4965230;28;20983;-68
2022/12/23 03:08:29;;;;;;;22.70;11.93;;;6.80;99.90;;;;;;4963182;28;20449;-68
2022/12/23 03:11:04;;;;;;;21.53;12.33;;;6.70;99.90;;;;;;4977322;28;20196;-68
2022/12/23 03:13:42;;;;;;;24.50;11.90;;;6.60;99.90;;;;;;4946019;28;20920;-68
2022/12/23 03:16:17;;;;;;;25.00;12.43;;;6.70;99.90;;;;;;4973221;28;20881;-68
2022/12/23 03:18:57;;;;;;;27.43;12.80;;;6.70;99.90;;;;;;4961728;28;20230;-69
2022/12/23 03:21:33;;;;;;;28.10;13.37;;;6.70;99.90;;;;;;4959393;28;20551;-69
2022/12/23 03:24:12;;;;;;;28.37;13.10;;;6.70;99.90;;;;;;4972426;28;20665;-68
2022/12/23 03:26:46;;;;;;;25.97;12.07;;;6.60;99.90;;;;;;4976574;28;20202;-68
2022/12/23 03:29:18;;;;;;;24.10;12.43;;;6.70;99.90;;;;;;4948295;28;20218;-69
2022/12/23 03:31:47;;;;;;;20.47;12.03;;;6.70;99.90;;;;;;4977349;28;20709;-69
2022/12/23 03:34:19;;;;;;;21.43;12.23;;;6.70;99.90;;;;;;4958877;28;20225;-68
2022/12/23 03:36:51;;;;;;;24.73;12.67;;;6.60;99.90;;;;;;4980903;28;20206;-69
2022/12/23 03:39:21;;;;;;;28.33;14.33;;;6.70;99.90;;;;;;4977109;28;20202;-69
2022/12/23 03:41:53;;;;;;;30.20;15.00;;;6.80;99.90;;;;;;4975793;28;20696;-68
2022/12/23 03:44:26;;;;;;;34.00;16.07;;;6.80;99.90;;;;;;4950943;28;21784;-69
2022/12/23 03:46:56;;;;;;;31.20;15.10;;;6.80;99.90;;;;;;4980991;28;20199;-68
2022/12/23 03:49:28;;;;;;;31.20;14.77;;;6.70;99.90;;;;;;4972777;28;20234;-69
2022/12/23 03:51:59;;;;;;;37.93;15.73;;;6.70;99.90;;;;;;4970935;28;20237;-69
2022/12/23 03:54:31;;;;;;;29.07;14.37;;;6.70;99.90;;;;;;4973594;28;20202;-68
2022/12/23 03:57:02;;;;;;;36.77;16.60;;;6.70;99.90;;;;;;4972824;28;20199;-68
2022/12/23 03:59:32;;;;;;;39.47;16.20;;;6.70;99.90;;;;;;4955701;28;20957;-69
2022/12/23 04:02:06;;;;;;;31.97;15.83;;;6.60;99.90;;;;;;4977671;28;20207;-68
2022/12/23 04:04:47;;;;;;;37.00;16.20;;;6.70;99.90;;;;;;4966374;28;20215;-69
2022/12/23 04:07:19;;;;;;;29.43;13.87;;;6.70;99.90;;;;;;4974827;28;20203;-68
2022/12/23 04:09:47;;;;;;;29.53;14.83;;;6.80;99.90;;;;;;4972662;28;20677;-68
2022/12/23 04:12:15;;;;;;;36.00;16.03;;;6.80;99.90;;;;;;4979178;28;20227;-68
2022/12/23 04:14:47;;;;;;;31.23;15.73;;;6.80;99.90;;;;;;4948712;28;20218;-68
2022/12/23 04:17:14;;;;;;;38.93;16.90;;;6.80;99.90;;;;;;4966872;28;20717;-68
2022/12/23 04:19:44;;;;;;;45.00;16.70;;;6.70;99.90;;;;;;4961128;28;20444;-68
2022/12/23 04:22:11;;;;;;;34.00;16.53;;;6.80;99.90;;;;;;4968767;28;20210;-68
2022/12/23 04:24:37;;;;;;;37.37;17.23;;;6.70;99.90;;;;;;4975850;28;20572;-69
2022/12/23 04:27:04;;;;;;;40.63;15.27;;;6.80;99.90;;;;;;4978683;28;20215;-68
2022/12/23 04:29:31;;;;;;;52.90;16.03;;;6.80;99.90;;;;;;4973298;28;20231;-69
2022/12/23 04:31:58;;;;;;;30.70;16.70;;;6.80;99.90;;;;;;4954688;28;20239;-68
2022/12/23 04:34:25;;;;;;;28.87;15.23;;;6.70;99.90;;;;;;4966540;28;20789;-69
2022/12/23 04:36:53;;;;;;;32.10;15.43;;;6.80;99.90;;;;;;4954430;28;20752;-69
2022/12/23 04:39:19;;;;;;;35.10;16.83;;;6.70;99.90;;;;;;4977308;28;20206;-69
2022/12/23 04:41:46;;;;;;;53.27;18.17;;;6.80;99.90;;;;;;4977540;28;20207;-69
2022/12/23 04:44:13;;;;;;;32.70;16.67;;;6.70;99.90;;;;;;4981745;28;20226;-68
2022/12/23 04:46:40;;;;;;;38.80;17.03;;;6.70;99.90;;;;;;4949198;28;20237;-69
2022/12/23 04:49:07;;;;;;;29.87;15.40;;;6.70;99.90;;;;;;4979896;28;20245;-68
2022/12/23 04:51:34;;;;;;;35.80;16.60;;;6.70;99.90;;;;;;4947095;28;20231;-68
2022/12/23 04:54:02;;;;;;;31.13;16.40;;;6.70;99.90;;;;;;4979399;28;20673;-69
2022/12/23 04:56:29;;;;;;;27.70;15.50;;;6.60;99.90;;;;;;4978679;28;20230;-69
2022/12/23 04:58:56;;;;;;;33.53;16.03;;;6.60;99.90;;;;;;4980102;28;20219;-69
2022/12/23 05:01:23;;;;;;;32.47;15.73;;;6.60;99.90;;;;;;4959233;28;20211;-69
2022/12/23 05:03:49;;;;;;;28.10;15.07;;;6.60;99.90;;;;;;4966420;28;20202;-69
2022/12/23 05:06:16;;;;;;;29.47;14.97;;;6.60;99.90;;;;;;4965235;28;20245;-68
2022/12/23 05:08:43;;;;;;;31.00;14.43;;;6.60;99.90;;;;;;4962004;28;22174;-69
2022/12/23 05:11:12;;;;;;;32.77;16.37;;;6.60;99.90;;;;;;4974703;28;20687;-68
2022/12/23 05:13:38;;;;;;;30.50;14.93;;;6.60;99.90;;;;;;4966808;28;20269;-68
2022/12/23 05:16:06;;;;;;;32.53;15.73;;;6.60;99.90;;;;;;4977372;28;20219;-68
2022/12/23 05:18:33;;;;;;;30.20;15.93;;;6.60;99.90;;;;;;4947576;28;20214;-69
2022/12/23 05:21:00;;;;;;;36.80;15.93;;;6.70;99.90;;;;;;4978703;28;20203;-69
2022/12/23 05:23:27;;;;;;;30.33;15.33;;;6.70;99.90;;;;;;4964516;28;20767;-68
2022/12/23 05:25:54;;;;;;;31.80;16.50;;;6.70;99.90;;;;;;4978311;28;20214;-68
2022/12/23 05:28:22;;;;;;;32.33;16.47;;;6.70;99.90;;;;;;4976247;28;20211;-69
2022/12/23 05:30:50;;;;;;;31.23;15.37;;;6.80;99.90;;;;;;4971020;28;21898;-68
2022/12/23 05:33:16;;;;;;;33.20;16.30;;;6.80;99.90;;;;;;4951747;28;20235;-68
2022/12/23 05:35:43;;;;;;;34.80;16.03;;;6.80;99.90;;;;;;4978277;28;20202;-69
2022/12/23 05:38:10;;;;;;;36.00;16.00;;;6.80;99.90;;;;;;4963537;28;23281;-69
2022/12/23 05:40:37;;;;;;;30.07;15.57;;;6.80;99.90;;;;;;4971838;28;20217;-69
2022/12/23 05:43:03;;;;;;;29.37;15.73;;;6.80;99.90;;;;;;4977141;28;20210;-69
2022/12/23 05:45:35;;;;;;;30.03;15.07;;;6.70;99.90;;;;;;4964321;28;20203;-69
2022/12/23 05:48:02;;;;;;;26.43;14.10;;;6.70;99.90;;;;;;4947312;28;20245;-69
2022/12/23 05:50:29;;;;;;;32.67;14.30;;;6.70;99.90;;;;;;4976075;28;20211;-69
2022/12/23 05:52:56;;;;;;;32.40;15.53;;;6.60;99.90;;;;;;4981128;28;20227;-68
2022/12/23 05:55:23;;;;;;;48.43;15.57;;;6.50;99.90;;;;;;4965327;28;20226;-68
2022/12/23 05:57:50;;;;;;;91.17;17.20;;;6.50;99.90;;;;;;4976617;28;20218;-68
2022/12/23 06:00:17;;;;;;;121.03;16.00;;;6.50;99.90;;;;;;4978623;28;20218;-69
2022/12/23 06:02:46;;;;;;;28.00;13.40;;;6.40;99.90;;;;;;4937615;28;20825;-69
2022/12/23 06:05:13;;;;;;;33.33;14.30;;;6.50;99.90;;;;;;4977279;28;20227;-69
2022/12/23 06:07:40;;;;;;;547.53;23.13;;;6.50;99.90;;;;;;4969027;28;20673;-69
2022/12/23 06:10:09;;;;;;;331.17;19.47;;;6.40;99.90;;;;;;4947486;28;20204;-68
2022/12/23 06:12:36;;;;;;;403.00;18.80;;;6.40;99.90;;;;;;4972725;28;20278;-68
2022/12/23 06:15:04;;;;;;;258.33;16.50;;;6.30;99.90;;;;;;4965797;28;20211;-68
2022/12/23 06:17:31;;;;;;;374.70;17.90;;;6.30;99.90;;;;;;4959150;28;20423;-68
2022/12/23 06:19:59;;;;;;;285.07;16.57;;;6.30;99.90;;;;;;4944062;28;20209;-68
2022/12/23 06:22:26;;;;;;;498.53;19.63;;;6.20;99.90;;;;;;4971588;28;20589;-68
2022/12/23 06:24:52;;;;;;;257.17;15.47;;;6.20;99.90;;;;;;4963196;28;20230;-68
2022/12/23 06:27:19;;;;;;;404.70;18.20;;;6.20;99.90;;;;;;4972777;28;20426;-68
2022/12/23 06:29:46;;;;;;;235.57;13.57;;;6.10;99.90;;;;;;4964348;28;20214;-69
2022/12/23 06:32:13;;;;;;;287.13;15.37;;;6.10;99.90;;;;;;4961726;28;20227;-68
2022/12/23 06:34:39;;;;;;;218.23;13.90;;;6.00;99.90;;;;;;4943967;28;20221;-68
2022/12/23 06:37:07;;;;;;;225.93;13.67;;;5.90;99.90;;;;;;4972529;28;20211;-68
2022/12/23 06:39:34;;;;;;;349.83;15.20;;;6.10;99.90;;;;;;4956492;28;20211;-69
2022/12/23 06:42:01;;;;;;;271.13;13.80;;;6.00;99.90;;;;;;4974174;28;20194;-68
2022/12/23 06:44:28;;;;;;;217.60;12.70;;;6.00;99.90;;;;;;4969250;28;20211;-68
2022/12/23 06:46:54;;;;;;;296.83;15.67;;;5.90;99.90;;;;;;4962189;28;20211;-68
2022/12/23 06:49:21;;;;;;;177.87;12.63;;;5.90;99.90;;;;;;4924928;28;21053;-69
2022/12/23 06:51:48;;;;;;;357.57;15.20;;;5.80;99.90;;;;;;4976811;28;20682;-68
2022/12/23 06:54:16;;;;;;;239.73;13.57;;;5.80;99.90;;;;;;4974043;28;20227;-68
2022/12/23 06:56:43;;;;;;;384.10;16.90;;;5.90;99.90;;;;;;4962280;28;20211;-68
2022/12/23 06:59:10;;;;;;;259.73;15.13;;;6.00;99.90;;;;;;4975223;28;21335;-68
2022/12/23 07:01:36;;;;;;;244.57;14.13;;;6.10;99.90;;;;;;4969326;28;20207;-68
2022/12/23 07:04:03;;;;;;;347.57;15.70;;;6.00;99.90;;;;;;4968957;28;20207;-68
2022/12/23 07:06:30;;;;;;;417.83;17.73;;;6.00;99.90;;;;;;4940715;28;20214;-68
2022/12/23 07:08:57;;;;;;;564.13;19.33;;;6.10;99.90;;;;;;4971958;28;20210;-68
2022/12/23 07:11:25;;;;;;;468.93;20.47;;;6.20;99.90;;;;;;4961956;28;20860;-69
2022/12/23 07:13:52;;;;;;;387.40;19.50;;;6.10;99.90;;;;;;4966382;28;20227;-68
2022/12/23 07:16:18;;;;;;;389.53;18.53;;;6.20;99.90;;;;;;4969382;28;20210;-69
2022/12/23 07:18:45;;;;;;;455.03;19.57;;;6.20;99.90;;;;;;4969723;28;20195;-68
2022/12/23 07:21:12;;;;;;;312.90;16.37;;;6.20;99.90;;;;;;4939530;28;20214;-68
2022/12/23 07:23:38;;;;;;;349.47;18.70;;;6.30;99.90;;;;;;4957959;28;20235;-68
2022/12/23 07:26:05;;;;;;;264.80;16.77;;;6.30;99.90;;;;;;4971801;28;20943;-68
2022/12/23 07:28:34;;;;;;;399.70;18.40;;;6.30;99.90;;;;;;4959075;28;20211;-68
2022/12/23 07:31:00;;;;;;;234.23;14.83;;;6.30;99.90;;;;;;4978050;28;20281;-69
2022/12/23 07:33:27;;;;;;;171.17;14.03;;;6.30;99.90;;;;;;4964401;28;20235;-69
2022/12/23 07:35:58;;;;;;;141.83;13.33;;;6.30;99.90;;;;;;4940388;28;20217;-68
2022/12/23 07:38:25;;;;;;;154.10;14.80;;;6.30;99.90;;;;;;4980451;28;20343;-68
2022/12/23 07:40:52;;;;;;;197.07;15.63;;;6.40;99.90;;;;;;4981834;28;20221;-68
2022/12/23 07:43:18;;;;;;;171.40;14.17;;;6.40;99.90;;;;;;4967943;28;20210;-68
2022/12/23 07:45:46;;;;;;;142.57;17.67;;;6.40;99.90;;;;;;4974933;28;20199;-68
2022/12/23 07:48:13;;;;;;;145.60;20.87;;;6.40;99.90;;;;;;4975900;28;20250;-68
2022/12/23 07:50:40;;;;;;;194.63;18.17;;;6.40;99.90;;;;;;4937672;28;20207;-69
2022/12/23 07:53:07;;;;;;;117.33;15.97;;;6.40;99.90;;;;;;4982102;28;20234;-69
2022/12/23 07:55:34;;;;;;;220.07;19.87;;;6.50;99.90;;;;;;4978551;28;20199;-68
2022/12/23 07:58:01;;;;;;;123.13;18.50;;;6.40;99.90;;;;;;4965388;28;20203;-69
2022/12/23 08:00:28;;;;;;;224.00;19.53;;;6.40;99.90;;;;;;4979012;28;26848;-68
2022/12/23 08:02:56;;;;;;;147.93;15.67;;;6.50;99.90;;;;;;4974447;28;20198;-68
2022/12/23 08:05:23;;;;;;;114.90;14.23;;;6.50;99.90;;;;;;4972827;28;20230;-68
2022/12/23 08:07:51;;;;;;;52.67;12.67;;;6.50;99.90;;;;;;4946779;28;20223;-68
2022/12/23 08:10:18;;;;;;;87.67;14.70;;;6.50;99.90;;;;;;4974543;28;20211;-68
2022/12/23 08:12:46;;;;;;;100.90;16.00;;;6.60;99.90;;;;;;4983485;28;20586;-68
2022/12/23 08:15:13;;;;;;;64.27;17.97;;;6.60;99.90;;;;;;4962840;28;20282;-69
2022/12/23 08:17:39;;;;;;;118.07;17.00;;;6.60;99.90;;;;;;4975605;28;20997;-68
2022/12/23 08:20:09;;;;;;;52.07;14.00;;;6.60;99.90;;;;;;4969436;28;20707;-69
2022/12/23 08:22:35;;;;;;;99.30;15.63;;;6.60;99.90;;;;;;4957342;28;20211;-68
2022/12/23 08:25:02;;;;;;;45.47;14.43;;;6.60;99.90;;;;;;4963174;28;21060;-69
2022/12/23 08:27:29;;;;;;;28.90;13.83;;;6.60;99.90;;;;;;4972561;28;20226;-68
2022/12/23 08:29:56;;;;;;;24.00;12.90;;;6.60;99.90;;;;;;4936668;28;21076;-68
2022/12/23 08:32:26;;;;;;;25.70;13.23;;;6.60;99.90;;;;;;4975253;28;20575;-68
2022/12/23 08:34:55;;;;;;;27.20;12.57;;;6.70;99.90;;;;;;4957876;28;20380;-68
2022/12/23 08:37:23;;;;;;;29.97;13.07;;;6.70;99.90;;;;;;4933873;28;20235;-68
2022/12/23 08:39:51;;;;;;;28.33;13.13;;;6.80;99.90;;;;;;4976543;28;20715;-68
2022/12/23 08:42:18;;;;;;;24.30;12.40;;;6.80;99.90;;;;;;4970261;28;20563;-67
2022/12/23 08:44:45;;;;;;;27.30;12.33;;;;;;;;;;4965768;28;20234;-68
2022/12/23 08:47:12;;;;;;;26.73;12.30;;;6.90;99.90;;;;;;4957736;28;20219;-68
2022/12/23 08:49:39;;;;;;;26.60;11.50;;;6.90;99.90;;;;;;4948721;28;20237;-69
2022/12/23 08:52:05;;;;;;;25.00;12.77;;;6.90;99.90;;;;;;4937361;28;20203;-69
2022/12/23 08:54:34;;;;;;;31.17;12.87;;;7.00;99.90;;;;;;4973279;28;20232;-68
2022/12/23 08:57:00;;;;;;;24.63;11.97;;;7.10;99.90;;;;;;4979633;28;20576;-68
2022/12/23 08:59:27;;;;;;;24.00;11.00;;;8.00;99.90;;;;;;4965182;28;20218;-68
2022/12/23 09:01:55;;;;;;;24.90;11.73;;;7.00;99.90;;;;;;4942439;28;20809;-69
2022/12/23 09:04:22;;;;;;;25.17;12.43;;;7.10;99.90;;;;;;4942938;28;20662;-68
2022/12/23 09:06:49;;;;;;;25.43;12.43;;;7.20;99.90;;;;;;4946196;28;20965;-69
2022/12/23 09:09:16;;;;;;;28.00;12.77;;;7.20;99.90;;;;;;4933775;28;21383;-68
2022/12/23 09:11:44;;;;;;;27.97;12.17;;;7.20;99.90;;;;;;4966114;28;21104;-69
2022/12/23 09:14:11;;;;;;;23.20;11.87;;;7.20;99.90;;;;;;4967105;28;20238;-67
2022/12/23 09:16:38;;;;;;;25.03;12.47;;;7.20;99.90;;;;;;4964907;28;20775;-68
2022/12/23 09:19:06;;;;;;;24.73;11.97;;;7.20;99.90;;;;;;4951739;28;20207;-69
2022/12/23 09:21:33;;;;;;;22.73;11.80;;;7.20;99.90;;;;;;4949799;28;20784;-69
2022/12/23 09:24:00;;;;;;;24.77;11.20;;;7.20;99.90;;;;;;4934781;28;20226;-68
2022/12/23 09:26:29;;;;;;;23.27;10.67;;;7.20;99.90;;;;;;4953030;28;20226;-69
2022/12/23 09:28:58;;;;;;;24.13;11.87;;;7.10;99.90;;;;;;4958813;28;20436;-68
2022/12/23 09:31:25;;;;;;;23.90;12.07;;;7.10;99.90;;;;;;4960122;28;20645;-68
2022/12/23 09:33:53;;;;;;;19.93;11.47;;;7.10;99.90;;;;;;4954489;28;20229;-68
2022/12/23 09:36:21;;;;;;;27.03;11.80;;;7.20;99.90;;;;;;4940452;28;20219;-68
2022/12/23 09:38:48;;;;;;;24.87;11.97;;;7.10;99.90;;;;;;4919499;28;22511;-68
2022/12/23 09:41:31;;;;;;;27.43;12.07;;;7.10;99.90;;;;;;4962042;28;20207;-68
2022/12/23 09:44:14;;;;;;;29.37;11.93;;;7.20;99.90;;;;;;4949956;28;20234;-68
2022/12/23 09:46:47;;;;;;;22.10;11.00;;;7.20;99.90;;;;;;4961143;28;20242;-68
2022/12/23 09:49:16;;;;;;;22.27;10.83;;;7.30;99.90;;;;;;4951776;28;20238;-68
2022/12/23 09:51:45;;;;;;;23.63;11.00;;;7.30;99.90;;;;;;4943963;28;20343;-68
2022/12/23 09:54:16;;;;;;;24.03;12.23;;;7.30;99.90;;;;;;4933797;28;20226;-68
2022/12/23 09:56:50;;;;;;;21.87;11.67;;;7.40;99.90;;;;;;4957482;28;20481;-68
2022/12/23 09:59:30;;;;;;;23.27;10.73;;;7.30;99.90;;;;;;4972928;28;20206;-68
2022/12/23 10:02:00;;;;;;;26.90;10.87;;;7.40;99.90;;;;;;4952720;28;20779;-69
2022/12/23 10:04:35;;;;;;;22.83;10.60;;;7.40;99.90;;;;;;4970198;28;20207;-68
2022/12/23 10:07:14;;;;;;;26.67;11.60;;;7.50;99.90;;;;;;4952882;28;20222;-68
2022/12/23 10:09:45;;;;;;;26.17;12.33;;;7.50;99.90;;;;;;4943125;28;20218;-68
2022/12/23 10:12:19;;;;;;;27.07;11.80;;;7.50;99.90;;;;;;4968138;28;20229;-68
2022/12/23 10:14:50;;;;;;;31.10;12.00;;;7.60;99.90;;;;;;4960786;28;20305;-68
2022/12/23 10:17:25;;;;;;;31.67;11.80;;;7.60;99.90;;;;;;4943957;28;20214;-68
2022/12/23 10:19:56;;;;;;;21.40;11.30;;;7.60;99.90;;;;;;4959782;28;20225;-68
2022/12/23 10:22:26;;;;;;;24.87;12.30;;;7.50;99.90;;;;;;4937102;28;22850;-67
2022/12/23 10:24:55;;;;;;;23.97;12.40;;;7.60;99.90;;;;;;4955289;28;20217;-68
2022/12/23 10:27:26;;;;;;;23.57;11.87;;;7.70;99.90;;;;;;4935642;28;20235;-68
2022/12/23 10:29:55;;;;;;;33.70;14.23;;;7.70;99.90;;;;;;4971584;28;20230;-67
2022/12/23 10:32:28;;;;;;;26.20;12.67;;;7.70;99.90;;;;;;4969641;28;20261;-68
2022/12/23 10:35:05;;;;;;;37.07;14.07;;;7.70;99.90;;;;;;4951656;28;20573;-68
2022/12/23 10:37:38;;;;;;;31.20;13.10;;;7.80;99.90;;;;;;4950310;28;20222;-68
2022/12/23 10:40:15;;;;;;;26.43;13.03;;;7.80;99.90;;;;;;4949717;28;20410;-68
2022/12/23 10:42:58;;;;;;;32.63;12.60;;;7.80;99.90;;;;;;4946534;28;20760;-68
2022/12/23 10:45:39;;;;;;;26.87;12.20;;;7.70;99.90;;;;;;4974190;28;20230;-68
2022/12/23 10:48:22;;;;;;;26.00;13.37;;;7.70;99.90;;;;;;4957517;28;20827;-68
2022/12/23 10:51:01;;;;;;;30.70;12.77;;;7.70;99.90;;;;;;4964275;28;20233;-68
2022/12/23 10:53:38;;;;;;;30.17;13.30;;;7.80;99.90;;;;;;4961783;28;20720;-68
2022/12/23 10:56:07;;;;;;;31.17;12.80;;;7.80;99.90;;;;;;4959106;28;20347;-68
2022/12/23 10:58:36;;;;;;;31.43;12.83;;;7.80;99.90;;;;;;4941630;28;20218;-68
2022/12/23 11:01:07;;;;;;;28.70;12.60;;;7.70;99.90;;;;;;4968633;28;20221;-68
2022/12/23 11:03:38;;;;;;;36.77;13.73;;;7.80;99.90;;;;;;4957264;28;22553;-68
2022/12/23 11:06:08;;;;;;;29.63;13.30;;;7.80;99.90;;;;;;4964451;28;20740;-68
2022/12/23 11:08:37;;;;;;;32.73;13.87;;;7.80;99.90;;;;;;4955162;28;20415;-67
2022/12/23 11:11:06;;;;;;;33.43;14.60;;;7.80;99.90;;;;;;4955147;28;20231;-68
2022/12/23 11:13:39;;;;;;;32.90;13.20;;;7.90;99.90;;;;;;4933046;28;20211;-67
2022/12/23 11:16:17;;;;;;;33.90;13.13;;;7.90;99.90;;;;;;4978222;28;20206;-67
2022/12/23 11:19:05;;;;;;;31.30;13.00;;;7.80;99.90;;;;;;4954245;28;20203;-68
2022/12/23 11:21:33;;;;;;;31.37;14.67;;;7.80;99.90;;;;;;4941792;28;20334;-68
2022/12/23 11:24:16;;;;;;;26.00;12.77;;;7.90;99.90;;;;;;4969732;28;20226;-67
2022/12/23 11:26:44;;;;;;;29.53;12.40;;;7.90;99.90;;;;;;4961331;28;20215;-69
2022/12/23 11:29:18;;;;;;;29.20;13.17;;;7.80;99.90;;;;;;4942755;28;20290;-67
2022/12/23 11:31:47;;;;;;;28.53;11.60;;;7.80;99.90;;;;;;4974338;28;20202;-68
2022/12/23 11:34:17;;;;;;;29.23;12.30;;;7.80;99.90;;;;;;4944557;28;20330;-67
2022/12/23 11:36:44;;;;;;;39.40;14.50;;;7.80;99.90;;;;;;4967603;28;21599;-68
2022/12/23 11:39:23;;;;;;;24.17;12.10;;;7.80;99.90;;;;;;4939064;28;20222;-68
2022/12/23 11:41:52;;;;;;;35.67;12.40;;;7.80;99.90;;;;;;4958706;28;20348;-68
2022/12/23 11:44:24;;;;;;;27.87;11.87;;;7.80;99.90;;;;;;4929472;28;20222;-68
2022/12/23 11:46:52;;;;;;;29.80;13.07;;;7.80;99.90;;;;;;4970219;28;20376;-68
2022/12/23 11:49:20;;;;;;;30.93;12.23;;;7.80;99.90;;;;;;4951217;28;20241;-68
2022/12/23 11:51:58;;;;;;;30.03;10.47;;;7.80;99.90;;;;;;4971434;28;20258;-68
2022/12/23 11:54:25;;;;;;;26.90;11.73;;;7.80;99.90;;;;;;4957110;28;20242;-68
2022/12/23 11:56:53;;;;;;;32.67;11.80;;;7.80;99.90;;;;;;4963287;28;20602;-68
2022/12/23 11:59:30;;;;;;;37.97;13.40;;;7.80;99.90;;;;;;4965375;28;20213;-68
2022/12/23 12:02:00;;;;;;;28.60;12.47;;;7.80;99.90;;;;;;4964237;28;20546;-68
2022/12/23 12:04:30;;;;;;;32.80;12.60;;;7.80;99.90;;;;;;4942110;28;20598;-68
2022/12/23 12:06:59;;;;;;;28.80;11.93;;;7.80;99.90;;;;;;4950949;28;20219;-68
2022/12/23 12:09:27;;;;;;;30.97;11.13;;;7.80;99.90;;;;;;4955313;28;20223;-68
2022/12/23 12:11:58;;;;;;;28.57;11.33;;;7.70;99.90;;;;;;4962247;28;20459;-68
2022/12/23 12:14:31;;;;;;;26.23;11.40;;;7.70;99.90;;;;;;4961879;28;20237;-68
2022/12/23 12:17:05;;;;;;;23.97;11.30;;;7.70;99.90;;;;;;4926389;28;20621;-68
2022/12/23 12:19:36;;;;;;;29.43;11.30;;;7.70;99.90;;;;;;4959790;28;20213;-68
2022/12/23 12:22:06;;;;;;;27.93;11.27;;;7.70;99.90;;;;;;4939594;28;20218;-68
2022/12/23 12:24:38;;;;;;;25.40;10.87;;;7.60;99.90;;;;;;4956371;28;20601;-68
2022/12/23 12:27:07;;;;;;;22.37;10.10;;;7.60;99.90;;;;;;4963124;28;20399;-68
2022/12/23 12:29:39;;;;;;;22.83;10.67;;;7.60;99.90;;;;;;4947147;28;20219;-68
2022/12/23 12:32:16;;;;;;;29.00;11.10;;;7.60;99.90;;;;;;4931253;28;20457;-68
2022/12/23 12:34:51;;;;;;;27.10;11.33;;;7.60;99.90;;;;;;4946460;28;20233;-68
2022/12/23 12:37:26;;;;;;;25.10;11.90;;;7.60;99.90;;;;;;4956335;28;20344;-68
2022/12/23 12:39:56;;;;;;;27.00;11.63;;;7.60;99.90;;;;;;4951246;28;20637;-67
2022/12/23 12:42:29;;;;;;;26.87;12.33;;;7.50;99.90;;;;;;4961176;28;20236;-67
2022/12/23 12:45:22;;;;;;;34.97;13.33;;;7.60;99.90;;;;;;4949726;28;21003;-67
2022/12/23 12:47:55;;;;;;;31.37;12.40;;;7.60;99.90;;;;;;4886432;28;20220;-67
2022/12/23 12:50:27;;;;;;;32.90;11.50;;;7.60;99.90;;;;;;4918129;28;20231;-68
2022/12/23 12:52:59;;;;;;;26.60;11.03;;;7.60;99.90;;;;;;4906753;28;20293;-68
2022/12/23 12:55:29;;;;;;;24.63;10.70;;;7.60;99.90;;;;;;4911517;28;20547;-67
2022/12/23 12:57:56;;;;;;;29.50;11.57;;;7.60;99.90;;;;;;4935282;28;20200;-68
2022/12/23 13:00:24;;;;;;;27.50;12.17;;;7.60;99.90;;;;;;4913344;28;20237;-68
2022/12/23 13:03:20;;;;;;;24.43;11.23;;;7.60;99.90;;;;;;4898541;28;20212;-68
2022/12/23 13:06:06;;;;;;;24.43;11.07;;;7.60;99.90;;;;;;4923860;28;21156;-68
2022/12/23 13:08:54;;;;;;;28.30;12.17;;;7.50;99.90;;;;;;4944646;28;20220;-67
2022/12/23 13:11:23;;;;;;;28.73;11.83;;;7.60;99.90;;;;;;4948340;28;20362;-68
2022/12/23 13:13:57;;;;;;;23.73;11.20;;;7.50;99.90;;;;;;4960261;28;20222;-68
2022/12/23 13:16:37;;;;;;;27.43;11.80;;;7.60;99.90;;;;;;4937350;28;20671;-68